Time;durP1;ratioP1;P1;durP2;ratioP2;P2;SDS_P1;SDS_P2;PMS_P1;PMS_P2;Temp;Humidity;BMP_temperature;BMP_pressure;BME280_temperature;BME280_humidity;BME280_pressure;Samples;Min_cycle;Max_cycle;Signal;HPM_P1;HPM_P2
2023/04/06 00:01:21;;;;;;;14.93;7.13;;;2.60;99.90;;;;;;5118547;27;20047;-75
2023/04/06 00:03:47;;;;;;;17.05;8.02;;;2.60;99.90;;;;;;5121991;27;20038;-74
2023/04/06 00:06:13;;;;;;;12.73;7.65;;;2.60;99.90;;;;;;5123572;27;20035;-75
2023/04/06 00:08:39;;;;;;;15.35;8.40;;;2.60;99.90;;;;;;5122553;27;20081;-76
2023/04/06 00:11:05;;;;;;;17.02;7.72;;;2.60;99.90;;;;;;5121695;27;20476;-75
2023/04/06 00:13:31;;;;;;;13.82;7.97;;;2.60;99.90;;;;;;5113628;27;20053;-75
2023/04/06 00:15:56;;;;;;;12.48;7.82;;;2.70;99.90;;;;;;5117196;27;20114;-75
2023/04/06 00:18:22;;;;;;;14.35;7.97;;;2.60;99.90;;;;;;5122390;27;20046;-76
2023/04/06 00:20:48;;;;;;;13.38;8.73;;;2.60;99.90;;;;;;5114693;27;20043;-75
2023/04/06 00:23:14;;;;;;;13.93;8.10;;;2.60;99.90;;;;;;5078054;27;20464;-75
2023/04/06 00:25:40;;;;;;;15.13;8.43;;;2.50;99.90;;;;;;5117159;27;20039;-75
2023/04/06 00:28:05;;;;;;;14.10;8.32;;;2.50;99.90;;;;;;5115356;27;20062;-76
2023/04/06 00:30:31;;;;;;;12.40;8.20;;;2.50;99.90;;;;;;5116013;27;20100;-75
2023/04/06 00:32:57;;;;;;;13.00;8.50;;;2.50;99.90;;;;;;5105035;28;20506;-75
2023/04/06 00:35:22;;;;;;;13.77;8.60;;;2.40;99.90;;;;;;5121531;28;20498;-75
2023/04/06 00:37:48;;;;;;;22.02;8.90;;;2.40;99.90;;;;;;5124513;27;20043;-76
2023/04/06 00:40:14;;;;;;;14.77;8.88;;;2.40;99.90;;;;;;5125253;27;20110;-75
2023/04/06 00:42:40;;;;;;;13.95;8.05;;;2.40;99.90;;;;;;5118005;28;20032;-75
2023/04/06 00:45:06;;;;;;;14.98;8.27;;;2.40;99.90;;;;;;5123645;27;20377;-75
2023/04/06 00:47:33;;;;;;;14.32;8.38;;;2.30;99.90;;;;;;5115681;28;20047;-74
2023/04/06 00:49:59;;;;;;;14.52;8.52;;;2.30;99.90;;;;;;5122136;28;20480;-75
2023/04/06 00:52:25;;;;;;;17.65;8.25;;;2.30;99.90;;;;;;5121559;28;20050;-75
2023/04/06 00:54:51;;;;;;;18.67;9.23;;;2.20;99.90;;;;;;5118403;27;20048;-76
2023/04/06 00:57:17;;;;;;;14.30;9.10;;;2.20;99.90;;;;;;5107945;28;20048;-75
2023/04/06 00:59:43;;;;;;;26.63;8.63;;;2.20;99.90;;;;;;5127605;28;20089;-76
2023/04/06 01:02:08;;;;;;;15.63;9.20;;;2.20;99.90;;;;;;5119897;28;20046;-75
2023/04/06 01:04:34;;;;;;;16.75;9.68;;;2.20;99.90;;;;;;5127325;28;20043;-75
2023/04/06 01:07:00;;;;;;;13.10;8.85;;;2.10;99.90;;;;;;5121864;28;20091;-75
2023/04/06 01:09:29;;;;;;;18.02;10.20;;;2.40;99.90;;;;;;5128766;28;20102;-74
2023/04/06 01:11:56;;;;;;;17.13;10.35;;;2.10;99.90;;;;;;5117172;28;20078;-75
2023/04/06 01:14:23;;;;;;;18.35;10.38;;;2.10;99.90;;;;;;5122568;27;20062;-76
2023/04/06 01:16:48;;;;;;;17.08;9.60;;;2.30;99.90;;;;;;5116991;27;20044;-75
2023/04/06 01:19:14;;;;;;;17.05;9.77;;;2.10;99.90;;;;;;5127811;27;20039;-75
2023/04/06 01:21:40;;;;;;;13.80;9.75;;;2.10;99.90;;;;;;5121408;27;20040;-75
2023/04/06 01:24:07;;;;;;;17.80;9.63;;;2.00;99.90;;;;;;5100282;27;20039;-75
2023/04/06 01:26:33;;;;;;;15.90;9.25;;;2.00;99.90;;;;;;5126310;27;20051;-74
2023/04/06 01:28:59;;;;;;;15.55;10.10;;;2.00;99.90;;;;;;5140675;27;20038;-75
2023/04/06 01:31:26;;;;;;;19.88;9.32;;;2.00;99.90;;;;;;5129242;27;20391;-75
2023/04/06 01:33:51;;;;;;;14.13;9.60;;;2.00;99.90;;;;;;5126839;27;20031;-75
2023/04/06 01:36:18;;;;;;;17.92;9.38;;;2.00;99.90;;;;;;5120481;27;20050;-75
2023/04/06 01:38:43;;;;;;;19.23;9.65;;;2.00;99.90;;;;;;5131949;27;20104;-76
2023/04/06 01:41:09;;;;;;;23.08;10.45;;;2.00;99.90;;;;;;5127145;27;20180;-75
2023/04/06 01:43:35;;;;;;;14.85;10.00;;;1.90;99.90;;;;;;5125954;27;20034;-75
2023/04/06 01:46:01;;;;;;;17.05;9.82;;;1.90;99.90;;;;;;5126869;27;20040;-74
2023/04/06 01:48:27;;;;;;;16.80;9.82;;;1.90;99.90;;;;;;5124603;27;20046;-74
2023/04/06 01:50:53;;;;;;;17.02;10.15;;;1.90;99.90;;;;;;5120496;27;20032;-75
2023/04/06 01:53:19;;;;;;;17.88;9.95;;;1.90;99.90;;;;;;5125457;27;20118;-74
2023/04/06 01:55:45;;;;;;;15.95;9.55;;;1.90;99.90;;;;;;5120734;27;20039;-75
2023/04/06 01:58:11;;;;;;;17.75;9.88;;;1.90;99.90;;;;;;5125555;27;20035;-75
2023/04/06 02:00:37;;;;;;;14.23;9.23;;;1.80;99.90;;;;;;5090681;27;20130;-76
2023/04/06 02:03:02;;;;;;;14.98;9.10;;;1.80;99.90;;;;;;5124645;27;20043;-74
2023/04/06 02:05:30;;;;;;;13.50;8.82;;;1.80;99.90;;;;;;5119255;27;20042;-75
2023/04/06 02:07:56;;;;;;;14.20;9.18;;;1.80;99.90;;;;;;5129663;27;20039;-75
2023/04/06 02:10:23;;;;;;;18.45;10.32;;;1.70;99.90;;;;;;5119444;27;20069;-75
2023/04/06 02:12:49;;;;;;;16.38;9.82;;;1.70;99.90;;;;;;5130388;27;20594;-74
2023/04/06 02:15:15;;;;;;;13.63;9.55;;;1.70;99.90;;;;;;5119487;27;20082;-74
2023/04/06 02:17:41;;;;;;;13.95;9.55;;;1.70;99.90;;;;;;5107237;27;20055;-75
2023/04/06 02:20:07;;;;;;;14.00;9.30;;;1.70;99.90;;;;;;5124562;27;20433;-75
2023/04/06 02:22:35;;;;;;;14.00;9.52;;;1.70;99.90;;;;;;5092230;27;20132;-75
2023/04/06 02:25:01;;;;;;;16.70;9.68;;;1.70;99.90;;;;;;5122947;27;20491;-75
2023/04/06 02:27:26;;;;;;;15.85;9.18;;;1.80;99.90;;;;;;5118030;27;20031;-75
2023/04/06 02:29:52;;;;;;;16.42;9.18;;;1.70;99.90;;;;;;5128829;27;20494;-75
2023/04/06 02:32:18;;;;;;;14.18;9.25;;;1.60;99.90;;;;;;5118098;27;20035;-75
2023/04/06 02:34:43;;;;;;;14.35;8.82;;;1.60;99.90;;;;;;5130336;27;20050;-73
2023/04/06 02:37:09;;;;;;;17.48;9.43;;;1.60;99.90;;;;;;5105215;28;20396;-74
2023/04/06 02:39:35;;;;;;;16.05;9.55;;;1.60;99.90;;;;;;5128194;27;20099;-74
2023/04/06 02:42:00;;;;;;;16.95;10.13;;;1.60;99.90;;;;;;5122325;27;20043;-75
2023/04/06 02:44:26;;;;;;;14.43;9.57;;;1.60;99.90;;;;;;5104578;27;20188;-74
2023/04/06 02:46:51;;;;;;;14.27;10.35;;;1.50;99.90;;;;;;5086640;28;20477;-75
2023/04/06 02:49:17;;;;;;;16.35;9.68;;;1.50;99.90;;;;;;5080839;27;20082;-75
2023/04/06 02:51:43;;;;;;;15.82;9.90;;;1.50;99.90;;;;;;5114604;28;20063;-75
2023/04/06 02:54:08;;;;;;;16.23;10.15;;;1.90;99.90;;;;;;5115114;27;20407;-75
2023/04/06 02:56:34;;;;;;;14.40;9.93;;;1.40;99.90;;;;;;5082504;28;20039;-75
2023/04/06 02:59:00;;;;;;;20.85;10.02;;;1.40;99.90;;;;;;5131332;27;20035;-75
2023/04/06 03:01:26;;;;;;;16.67;9.70;;;1.40;99.90;;;;;;5120048;27;20059;-75
2023/04/06 03:03:51;;;;;;;15.65;9.75;;;1.40;99.90;;;;;;5117603;27;20510;-76
2023/04/06 03:06:17;;;;;;;15.65;10.20;;;1.40;99.90;;;;;;5119364;27;20046;-75
2023/04/06 03:08:43;;;;;;;20.17;10.10;;;1.40;99.90;;;;;;5123584;27;20039;-74
2023/04/06 03:11:08;;;;;;;16.95;9.77;;;1.30;99.90;;;;;;5130796;27;20035;-75
2023/04/06 03:13:38;;;;;;;16.65;9.32;;;1.30;99.90;;;;;;5125591;27;20445;-75
2023/04/06 03:16:04;;;;;;;17.85;9.30;;;1.30;99.90;;;;;;5117448;27;20578;-74
2023/04/06 03:18:30;;;;;;;16.40;10.00;;;1.30;99.90;;;;;;5121581;27;20476;-75
2023/04/06 03:20:56;;;;;;;16.85;9.57;;;1.20;99.90;;;;;;5118645;27;20053;-75
2023/04/06 03:23:21;;;;;;;14.35;9.35;;;1.20;99.90;;;;;;5118713;27;20071;-74
2023/04/06 03:25:47;;;;;;;17.15;9.40;;;1.20;99.90;;;;;;5111440;27;20077;-75
2023/04/06 03:28:13;;;;;;;17.40;9.75;;;1.10;99.90;;;;;;5123473;27;20553;-75
2023/04/06 03:30:38;;;;;;;15.38;9.80;;;1.10;99.90;;;;;;5122190;27;20039;-75
2023/04/06 03:33:04;;;;;;;18.10;10.32;;;1.10;99.90;;;;;;5118619;27;20130;-75
2023/04/06 03:35:30;;;;;;;16.73;10.38;;;1.10;99.90;;;;;;5117307;27;20118;-75
2023/04/06 03:37:55;;;;;;;17.50;10.10;;;1.00;99.90;;;;;;5117385;27;20032;-75
2023/04/06 03:40:21;;;;;;;14.68;10.18;;;1.00;99.90;;;;;;5131530;27;20044;-74
2023/04/06 03:42:47;;;;;;;19.42;10.77;;;1.00;99.90;;;;;;5116390;27;20511;-75
2023/04/06 03:45:13;;;;;;;16.45;10.77;;;1.00;99.90;;;;;;5114658;27;20039;-74
2023/04/06 03:47:39;;;;;;;16.70;11.15;;;1.00;99.90;;;;;;5102709;28;20043;-74
2023/04/06 03:50:06;;;;;;;18.02;10.43;;;1.00;99.90;;;;;;5116344;27;20039;-75
2023/04/06 03:52:31;;;;;;;21.38;11.45;;;1.00;99.90;;;;;;5130503;27;20039;-75
2023/04/06 03:54:57;;;;;;;18.38;12.00;;;0.90;99.90;;;;;;5099420;28;20046;-75
2023/04/06 03:57:22;;;;;;;16.85;11.00;;;0.90;99.90;;;;;;5117056;27;20049;-74
2023/04/06 03:59:48;;;;;;;15.05;10.88;;;0.90;99.90;;;;;;5111965;27;20118;-75
2023/04/06 04:02:14;;;;;;;21.23;10.32;;;0.90;99.90;;;;;;5101403;27;20043;-74
2023/04/06 04:04:40;;;;;;;18.48;11.68;;;0.90;99.90;;;;;;5122638;27;20399;-75
2023/04/06 04:07:05;;;;;;;17.85;10.93;;;0.90;99.90;;;;;;5116815;27;20546;-75
2023/04/06 04:09:31;;;;;;;17.73;11.10;;;0.90;99.90;;;;;;5121588;27;20031;-74
2023/04/06 04:11:56;;;;;;;16.63;10.43;;;0.90;99.90;;;;;;5121163;27;20078;-75
2023/04/06 04:14:22;;;;;;;19.95;10.50;;;0.80;99.90;;;;;;5132116;27;20053;-75
2023/04/06 04:16:48;;;;;;;17.30;9.88;;;0.80;99.90;;;;;;5118636;27;20031;-75
2023/04/06 04:19:13;;;;;;;13.95;9.57;;;0.80;99.90;;;;;;5130627;27;20395;-74
2023/04/06 04:21:44;;;;;;;16.92;10.30;;;0.80;99.90;;;;;;5139040;27;20043;-75
2023/04/06 04:24:10;;;;;;;15.32;9.80;;;0.80;99.90;;;;;;5122795;27;20425;-75
2023/04/06 04:26:36;;;;;;;18.13;10.90;;;0.80;99.90;;;;;;5122912;27;20130;-75
2023/04/06 04:29:01;;;;;;;15.57;9.77;;;0.70;99.90;;;;;;5130699;27;20039;-75
2023/04/06 04:31:27;;;;;;;16.52;10.57;;;0.70;99.90;;;;;;5127039;27;20085;-75
2023/04/06 04:33:52;;;;;;;16.67;10.43;;;0.70;99.90;;;;;;5125966;27;20035;-75
2023/04/06 04:36:18;;;;;;;19.45;10.50;;;0.70;99.90;;;;;;5098241;28;20034;-75
2023/04/06 04:38:44;;;;;;;15.18;9.95;;;0.70;99.90;;;;;;5125312;27;20460;-75
2023/04/06 04:41:10;;;;;;;19.75;10.48;;;0.70;99.90;;;;;;5122562;27;20078;-75
2023/04/06 04:43:35;;;;;;;16.55;10.10;;;0.70;99.90;;;;;;5114251;28;20377;-75
2023/04/06 04:46:01;;;;;;;14.52;9.98;;;0.70;99.90;;;;;;5117981;27;20039;-74
2023/04/06 04:48:26;;;;;;;15.27;9.57;;;0.60;99.90;;;;;;5112932;28;20043;-75
2023/04/06 04:50:52;;;;;;;14.05;10.02;;;0.70;99.90;;;;;;5100010;28;20179;-75
2023/04/06 04:53:18;;;;;;;15.13;9.30;;;0.60;99.90;;;;;;5124420;28;20039;-75
2023/04/06 04:55:43;;;;;;;19.27;9.85;;;0.60;99.90;;;;;;5116467;27;20051;-75
2023/04/06 04:58:10;;;;;;;15.40;9.75;;;0.60;99.90;;;;;;5130579;27;20055;-75
2023/04/06 05:00:36;;;;;;;14.95;9.52;;;0.60;99.90;;;;;;5105228;27;20035;-75
2023/04/06 05:03:04;;;;;;;17.38;10.05;;;0.60;99.90;;;;;;5118028;27;20031;-75
2023/04/06 05:05:30;;;;;;;20.05;9.82;;;0.60;99.90;;;;;;5121632;27;20035;-75
2023/04/06 05:07:56;;;;;;;19.08;9.15;;;0.70;99.90;;;;;;5102718;27;20045;-75
2023/04/06 05:10:22;;;;;;;17.58;9.45;;;0.70;99.90;;;;;;5123448;27;20480;-75
2023/04/06 05:12:47;;;;;;;16.30;9.60;;;0.70;99.90;;;;;;5124249;27;20038;-75
2023/04/06 05:15:13;;;;;;;15.00;9.35;;;0.70;99.90;;;;;;5120045;27;20042;-73
2023/04/06 05:17:39;;;;;;;16.25;9.27;;;0.70;99.90;;;;;;5117238;27;20054;-73
2023/04/06 05:20:05;;;;;;;14.27;9.88;;;0.80;99.90;;;;;;5105569;27;20590;-73
2023/04/06 05:22:31;;;;;;;23.58;9.75;;;0.80;99.90;;;;;;5126134;27;20039;-73
2023/04/06 05:24:56;;;;;;;16.73;9.48;;;0.90;99.90;;;;;;5122312;27;20043;-73
2023/04/06 05:27:22;;;;;;;29.95;13.38;;;0.80;99.90;;;;;;5123815;27;20088;-73
2023/04/06 05:29:48;;;;;;;17.65;9.63;;;0.90;99.90;;;;;;5104233;27;20043;-73
2023/04/06 05:32:14;;;;;;;21.15;8.93;;;0.90;99.90;;;;;;5105477;27;20148;-73
2023/04/06 05:34:40;;;;;;;17.48;9.65;;;0.90;99.90;;;;;;5123132;27;20046;-74
2023/04/06 05:37:05;;;;;;;18.45;8.82;;;1.00;99.90;;;;;;5119021;27;20177;-73
2023/04/06 05:39:31;;;;;;;22.40;9.65;;;1.10;99.90;;;;;;5120766;27;20110;-74
2023/04/06 05:41:56;;;;;;;14.85;10.35;;;1.00;99.90;;;;;;5100676;27;20044;-74
2023/04/06 05:44:22;;;;;;;19.20;9.23;;;1.10;99.90;;;;;;5116886;27;20049;-73
2023/04/06 05:46:47;;;;;;;19.85;8.85;;;1.10;99.90;;;;;;5115642;28;20043;-74
2023/04/06 05:49:13;;;;;;;17.77;8.95;;;1.20;99.90;;;;;;5117051;27;20031;-73
2023/04/06 05:51:39;;;;;;;19.05;9.98;;;1.30;99.90;;;;;;5130592;27;20504;-73
2023/04/06 05:54:05;;;;;;;13.55;8.35;;;1.30;99.90;;;;;;5136560;27;20099;-73
2023/04/06 05:56:31;;;;;;;13.88;8.80;;;1.50;99.90;;;;;;5124528;27;20074;-74
2023/04/06 05:58:57;;;;;;;14.98;8.85;;;1.50;99.90;;;;;;5134234;27;20523;-74
2023/04/06 06:01:23;;;;;;;14.48;9.30;;;1.50;99.90;;;;;;5097639;27;20043;-74
2023/04/06 06:03:48;;;;;;;18.38;8.63;;;1.60;99.90;;;;;;5137245;27;20035;-74
2023/04/06 06:06:14;;;;;;;19.50;8.48;;;1.80;99.90;;;;;;5121838;27;20088;-74
2023/04/06 06:08:40;;;;;;;14.93;8.18;;;2.00;99.90;;;;;;5104565;28;20421;-74
2023/04/06 06:11:06;;;;;;;20.58;9.25;;;2.30;99.90;;;;;;5132871;27;20050;-73
2023/04/06 06:13:31;;;;;;;18.75;9.15;;;2.40;99.90;;;;;;5116134;27;20036;-74
2023/04/06 06:15:57;;;;;;;15.50;8.52;;;2.50;99.90;;;;;;5124681;27;20063;-74
2023/04/06 06:18:23;;;;;;;16.80;8.90;;;2.40;99.90;;;;;;5130394;27;20069;-74
2023/04/06 06:20:49;;;;;;;17.30;9.07;;;2.50;99.90;;;;;;5132327;27;20090;-74
2023/04/06 06:23:14;;;;;;;14.68;7.97;;;2.50;99.90;;;;;;5123556;27;20035;-74
2023/04/06 06:25:40;;;;;;;17.15;7.72;;;2.60;99.90;;;;;;5115624;28;20078;-73
2023/04/06 06:28:06;;;;;;;17.40;8.80;;;2.60;99.90;;;;;;5120103;27;20035;-73
2023/04/06 06:30:31;;;;;;;12.40;7.93;;;2.70;99.90;;;;;;5120024;27;20039;-74
2023/04/06 06:32:57;;;;;;;17.83;8.80;;;2.80;99.90;;;;;;5107677;27;20555;-74
2023/04/06 06:35:23;;;;;;;16.45;8.25;;;2.90;99.90;;;;;;5126169;27;20511;-74
2023/04/06 06:37:48;;;;;;;14.60;8.38;;;3.10;99.90;;;;;;5134020;27;20070;-73
2023/04/06 06:40:15;;;;;;;14.45;8.68;;;3.40;99.90;;;;;;5132460;27;20424;-74
2023/04/06 06:42:41;;;;;;;16.20;8.23;;;3.80;99.90;;;;;;5115756;27;20120;-74
2023/04/06 06:45:08;;;;;;;17.45;8.68;;;4.10;99.90;;;;;;5120425;27;20119;-74
2023/04/06 06:47:33;;;;;;;18.60;8.98;;;4.30;99.90;;;;;;5118990;27;20165;-74
2023/04/06 06:49:59;;;;;;;13.32;9.48;;;4.50;99.90;;;;;;5122801;27;20126;-73
2023/04/06 06:52:24;;;;;;;13.93;8.95;;;4.90;99.90;;;;;;5121811;27;20103;-74
2023/04/06 06:54:50;;;;;;;19.52;9.05;;;5.20;99.90;;;;;;5119095;27;20047;-75
2023/04/06 06:57:16;;;;;;;19.65;9.95;;;5.40;99.90;;;;;;5118450;27;20043;-74
2023/04/06 06:59:41;;;;;;;19.35;8.63;;;5.50;99.90;;;;;;5117674;27;20473;-74
2023/04/06 07:02:07;;;;;;;12.10;8.73;;;5.60;99.90;;;;;;5115803;28;20492;-73
2023/04/06 07:04:32;;;;;;;17.85;8.05;;;5.70;99.90;;;;;;5114400;27;20128;-75
2023/04/06 07:06:58;;;;;;;11.88;7.88;;;6.00;99.90;;;;;;5111996;28;20481;-73
2023/04/06 07:09:23;;;;;;;11.60;8.18;;;6.40;99.90;;;;;;5113964;27;20036;-75
2023/04/06 07:11:49;;;;;;;14.77;8.38;;;6.70;99.90;;;;;;5114748;27;20042;-75
2023/04/06 07:14:16;;;;;;;16.40;8.38;;;6.80;99.90;;;;;;5115158;28;20482;-74
2023/04/06 07:16:41;;;;;;;17.30;8.70;;;6.70;99.90;;;;;;5114974;28;20122;-74
2023/04/06 07:19:09;;;;;;;14.88;8.82;;;6.60;99.90;;;;;;5113609;27;20468;-74
2023/04/06 07:21:35;;;;;;;21.50;8.73;;;7.00;99.90;;;;;;5113740;28;20533;-74
2023/04/06 07:24:01;;;;;;;16.63;8.32;;;6.60;99.90;;;;;;5097653;28;20036;-74
2023/04/06 07:26:27;;;;;;;13.30;8.75;;;7.20;99.90;;;;;;5115781;27;20047;-74
2023/04/06 07:28:53;;;;;;;15.98;9.32;;;6.60;99.90;;;;;;5138052;27;20043;-73
2023/04/06 07:31:18;;;;;;;16.60;8.48;;;6.60;99.90;;;;;;5135581;27;20126;-73
2023/04/06 07:33:44;;;;;;;14.13;8.90;;;6.70;99.90;;;;;;5135439;27;20057;-73
2023/04/06 07:36:10;;;;;;;13.18;8.45;;;6.70;99.90;;;;;;5132629;27;20084;-73
2023/04/06 07:38:36;;;;;;;16.58;8.60;;;6.80;99.90;;;;;;5115701;27;20376;-74
2023/04/06 07:41:03;;;;;;;15.05;8.27;;;6.90;99.90;;;;;;5096369;28;20122;-73
2023/04/06 07:43:30;;;;;;;12.95;8.23;;;7.00;99.90;;;;;;5095929;28;20051;-73
2023/04/06 07:45:57;;;;;;;16.77;9.75;;;7.00;99.90;;;;;;5114265;27;20039;-72
2023/04/06 07:48:23;;;;;;;14.27;8.00;;;7.00;99.90;;;;;;5114408;28;20051;-74
2023/04/06 07:50:48;;;;;;;20.50;9.00;;;7.00;99.90;;;;;;5119920;27;20100;-73
2023/04/06 07:53:14;;;;;;;16.42;8.95;;;7.10;99.90;;;;;;5131599;27;20043;-73
2023/04/06 07:55:40;;;;;;;18.23;8.60;;;7.10;99.90;;;;;;5134495;27;20467;-73
2023/04/06 07:58:06;;;;;;;12.57;8.60;;;7.30;99.90;;;;;;5124986;27;20531;-73
2023/04/06 08:00:31;;;;;;;12.15;8.27;;;7.30;99.90;;;;;;5120710;27;20035;-74
2023/04/06 08:02:57;;;;;;;16.65;8.73;;;7.40;99.90;;;;;;5131814;27;20039;-73
2023/04/06 08:05:23;;;;;;;15.55;9.10;;;7.50;99.90;;;;;;5129902;27;20047;-74
2023/04/06 08:07:48;;;;;;;13.18;8.32;;;7.60;99.90;;;;;;5113680;27;20039;-74
2023/04/06 08:10:14;;;;;;;12.55;9.13;;;7.70;99.90;;;;;;5113756;28;20061;-74
2023/04/06 08:12:39;;;;;;;15.60;8.35;;;7.90;99.90;;;;;;5120003;27;20116;-74
2023/04/06 08:15:06;;;;;;;12.43;7.93;;;8.00;99.90;;;;;;5113905;27;20039;-73
2023/04/06 08:17:32;;;;;;;13.73;8.30;;;8.10;99.90;;;;;;5115375;27;20621;-73
2023/04/06 08:19:57;;;;;;;11.43;8.43;;;8.20;99.90;;;;;;5097307;28;20404;-73
2023/04/06 08:22:23;;;;;;;12.65;8.05;;;8.20;99.90;;;;;;5115085;27;20040;-74
2023/04/06 08:24:49;;;;;;;14.80;8.48;;;8.40;99.90;;;;;;5122621;27;20039;-74
2023/04/06 08:27:14;;;;;;;14.82;9.57;;;8.50;99.90;;;;;;5115944;28;20437;-74
2023/04/06 08:29:40;;;;;;;14.70;8.35;;;8.60;99.90;;;;;;5142034;27;20509;-73
2023/04/06 08:32:06;;;;;;;12.02;8.70;;;8.80;99.90;;;;;;5118940;27;20042;-74
2023/04/06 08:34:33;;;;;;;15.70;8.93;;;9.00;99.90;;;;;;5112657;28;20497;-73
2023/04/06 08:36:59;;;;;;;16.30;9.35;;;9.20;99.90;;;;;;5102343;28;20031;-75
2023/04/06 08:39:27;;;;;;;20.30;9.32;;;9.30;99.90;;;;;;5132809;27;20045;-74
2023/04/06 08:41:56;;;;;;;17.95;9.20;;;9.40;99.90;;;;;;5134333;27;20116;-74
2023/04/06 08:44:22;;;;;;;17.73;9.02;;;9.80;99.90;;;;;;5133213;27;20100;-75
2023/04/06 08:46:48;;;;;;;14.55;8.65;;;9.70;99.70;;;;;;5133308;27;20373;-75
2023/04/06 08:49:15;;;;;;;17.38;9.05;;;9.90;99.90;;;;;;5132867;27;20066;-74
2023/04/06 08:51:42;;;;;;;13.50;8.60;;;10.00;99.90;;;;;;5114669;28;20096;-74
2023/04/06 08:54:08;;;;;;;16.42;9.20;;;10.10;99.30;;;;;;5133486;28;20285;-74
2023/04/06 08:56:38;;;;;;;13.75;8.60;;;10.30;99.60;;;;;;5123692;28;20075;-75
2023/04/06 08:59:04;;;;;;;15.00;8.77;;;10.50;98.90;;;;;;5113008;28;20092;-73
2023/04/06 09:01:31;;;;;;;14.38;8.73;;;10.70;98.50;;;;;;5112624;28;20135;-73
2023/04/06 09:04:00;;;;;;;16.88;9.43;;;10.80;98.70;;;;;;5114475;28;20066;-75
2023/04/06 09:06:30;;;;;;;16.35;8.52;;;10.90;98.40;;;;;;5118860;28;20126;-74
2023/04/06 09:08:57;;;;;;;16.70;8.57;;;11.10;98.70;;;;;;5133654;28;20097;-74
2023/04/06 09:11:23;;;;;;;13.38;8.27;;;11.30;97.90;;;;;;5125648;27;20161;-73
2023/04/06 09:13:52;;;;;;;11.95;8.77;;;11.50;97.80;;;;;;5124136;28;20035;-73
2023/04/06 09:16:18;;;;;;;;;;;11.70;96.40;;;;;;5113449;28;20071;-74
2023/04/06 09:18:44;;;;;;;16.50;8.50;;;11.90;96.30;;;;;;5100165;28;19965;-72
2023/04/06 09:21:10;;;;;;;14.43;8.35;;;12.00;96.00;;;;;;5129832;28;20411;-76
2023/04/06 09:23:36;;;;;;;14.48;8.93;;;12.20;95.80;;;;;;5131134;28;20035;-73
2023/04/06 09:26:07;;;;;;;18.50;8.60;;;12.30;95.50;;;;;;5128744;28;20039;-73
2023/04/06 09:28:50;;;;;;;13.70;8.68;;;12.50;95.40;;;;;;5096471;28;20050;-74
2023/04/06 09:31:23;;;;;;;16.40;9.20;;;12.60;94.50;;;;;;5124457;28;20047;-73
2023/04/06 09:33:49;;;;;;;13.45;7.97;;;12.90;94.70;;;;;;5133340;28;20126;-74
2023/04/06 09:36:15;;;;;;;15.05;8.73;;;13.20;94.50;;;;;;5131366;28;20496;-74
2023/04/06 09:38:57;;;;;;;14.48;8.23;;;13.30;93.70;;;;;;5122223;28;20046;-75
2023/04/06 09:41:34;;;;;;;13.18;8.93;;;13.30;91.90;;;;;;5094096;28;20437;-73
2023/04/06 09:44:10;;;;;;;14.90;8.82;;;13.00;91.20;;;;;;5116322;28;20056;-73
2023/04/06 09:46:41;;;;;;;14.20;8.60;;;12.80;90.20;;;;;;5116743;28;20130;-73
2023/04/06 09:49:09;;;;;;;15.95;8.23;;;12.70;91.60;;;;;;5117339;27;20043;-74
2023/04/06 09:51:48;;;;;;;15.80;8.70;;;12.50;91.30;;;;;;5117384;27;20040;-73
2023/04/06 09:54:20;;;;;;;12.07;8.93;;;12.40;90.50;;;;;;5081650;28;20047;-73
2023/04/06 09:56:59;;;;;;;16.15;9.35;;;12.30;91.00;;;;;;5103359;28;20051;-73
2023/04/06 09:59:36;;;;;;;14.55;9.15;;;12.10;90.30;;;;;;5134635;27;20373;-73
2023/04/06 10:02:05;;;;;;;15.65;9.27;;;12.00;90.50;;;;;;5108252;27;20063;-74
2023/04/06 10:04:47;;;;;;;12.18;8.57;;;11.90;90.80;;;;;;5097619;28;20071;-74
2023/04/06 10:07:13;;;;;;;14.35;9.60;;;11.90;90.70;;;;;;5121003;27;20083;-73
2023/04/06 10:09:39;;;;;;;18.27;10.00;;;11.90;91.60;;;;;;5108737;27;20035;-73
2023/04/06 10:12:05;;;;;;;12.85;8.82;;;12.00;91.60;;;;;;5118678;27;20050;-74
2023/04/06 10:14:38;;;;;;;16.48;9.52;;;11.90;91.40;;;;;;5119164;27;20509;-73
2023/04/06 10:17:04;;;;;;;16.92;10.10;;;11.90;91.40;;;;;;5130366;27;20031;-74
2023/04/06 10:19:52;;;;;;;15.30;9.48;;;12.00;91.50;;;;;;5116177;28;20056;-74
2023/04/06 10:22:38;;;;;;;16.77;10.15;;;12.10;91.60;;;;;;5116553;27;20039;-74
2023/04/06 10:25:03;;;;;;;14.95;9.57;;;12.20;91.10;;;;;;5115926;27;20035;-74
2023/04/06 10:27:30;;;;;;;13.02;9.93;;;12.40;91.20;;;;;;5126774;27;20076;-74
2023/04/06 10:30:02;;;;;;;16.40;10.43;;;12.60;91.10;;;;;;5131717;27;20043;-74
2023/04/06 10:32:39;;;;;;;20.48;10.57;;;12.50;90.50;;;;;;5131218;27;20043;-74
2023/04/06 10:35:10;;;;;;;16.05;10.32;;;12.70;91.00;;;;;;5116026;28;20047;-74
2023/04/06 10:38:02;;;;;;;19.92;11.10;;;12.90;91.80;;;;;;5120381;27;20106;-73
2023/04/06 10:40:28;;;;;;;17.75;10.45;;;13.10;88.40;;;;;;5136008;27;20047;-73
2023/04/06 10:42:55;;;;;;;18.58;11.50;;;13.20;90.50;;;;;;5136298;27;20051;-73
2023/04/06 10:45:25;;;;;;;19.00;11.15;;;13.40;90.40;;;;;;5136396;27;20503;-73
2023/04/06 10:47:54;;;;;;;17.42;11.75;;;13.80;89.90;;;;;;5117022;27;20040;-74
2023/04/06 10:50:20;;;;;;;21.95;12.07;;;14.10;86.90;;;;;;5116339;27;20044;-73
2023/04/06 10:52:46;;;;;;;18.88;11.20;;;14.30;86.50;;;;;;5134070;27;20104;-72
2023/04/06 10:55:14;;;;;;;15.65;10.77;;;14.40;86.10;;;;;;5105618;28;20048;-73
2023/04/06 10:57:40;;;;;;;16.77;11.55;;;14.40;87.50;;;;;;5115301;27;20050;-73
2023/04/06 11:00:07;;;;;;;18.65;11.57;;;14.40;87.00;;;;;;5121279;27;20047;-73
2023/04/06 11:02:35;;;;;;;19.30;11.63;;;14.40;86.60;;;;;;5127734;27;20039;-72
2023/04/06 11:05:01;;;;;;;18.48;11.95;;;14.30;85.80;;;;;;5132797;27;20096;-74
2023/04/06 11:07:28;;;;;;;17.25;12.40;;;14.30;87.00;;;;;;5122468;27;20043;-74
2023/04/06 11:09:54;;;;;;;23.45;13.98;;;14.20;86.10;;;;;;5131064;27;20074;-74
2023/04/06 11:12:25;;;;;;;20.15;13.55;;;14.00;85.60;;;;;;5117202;28;20082;-72
2023/04/06 11:15:05;;;;;;;20.58;14.90;;;14.00;85.50;;;;;;5141061;27;20041;-74
2023/04/06 11:17:35;;;;;;;22.52;16.73;;;13.90;84.70;;;;;;5115039;27;20122;-73
2023/04/06 11:20:02;;;;;;;28.25;17.70;;;14.00;83.50;;;;;;5124044;27;20031;-75
2023/04/06 11:22:28;;;;;;;25.67;17.42;;;14.10;83.90;;;;;;5109393;27;20445;-73
2023/04/06 11:25:06;;;;;;;29.67;19.55;;;14.40;83.80;;;;;;5115503;27;20070;-73
2023/04/06 11:27:33;;;;;;;29.60;19.17;;;14.60;80.90;;;;;;5114127;27;20043;-73
2023/04/06 11:30:03;;;;;;;27.92;19.80;;;14.90;82.40;;;;;;5143464;27;20039;-73
2023/04/06 11:32:29;;;;;;;31.58;18.73;;;15.20;81.20;;;;;;5155871;27;20368;-73
2023/04/06 11:34:57;;;;;;;29.20;19.00;;;15.30;79.90;;;;;;5116482;27;20057;-73
2023/04/06 11:37:26;;;;;;;34.78;20.33;;;15.30;79.40;;;;;;5114148;27;20050;-73
2023/04/06 11:39:55;;;;;;;31.25;20.33;;;15.40;79.80;;;;;;5112560;28;20059;-74
2023/04/06 11:42:29;;;;;;;38.38;20.98;;;15.50;79.40;;;;;;5117777;27;20039;-77
2023/04/06 11:44:58;;;;;;;27.13;19.63;;;15.40;77.10;;;;;;5126414;27;20084;-72
2023/04/06 11:47:36;;;;;;;39.67;20.88;;;15.70;77.30;;;;;;5133311;27;20085;-73
2023/04/06 11:50:10;;;;;;;36.35;19.77;;;15.80;76.40;;;;;;5126558;27;20035;-73
2023/04/06 11:52:37;;;;;;;28.63;19.52;;;16.00;76.70;;;;;;5118072;27;20341;-73
2023/04/06 11:55:15;;;;;;;31.63;19.43;;;16.10;76.20;;;;;;5120602;27;20068;-73
2023/04/06 11:57:41;;;;;;;28.42;18.73;;;16.10;74.00;;;;;;5131421;27;20043;-73
2023/04/06 12:00:11;;;;;;;28.35;19.90;;;16.10;75.80;;;;;;5128630;27;20431;-73
2023/04/06 12:02:38;;;;;;;27.00;19.45;;;16.10;75.40;;;;;;5151212;27;20038;-73
2023/04/06 12:05:05;;;;;;;28.42;20.60;;;16.00;75.00;;;;;;5103276;28;20044;-74
2023/04/06 12:07:32;;;;;;;28.50;20.40;;;15.90;75.20;;;;;;5112735;27;20089;-73
2023/04/06 12:09:59;;;;;;;29.25;20.15;;;15.80;75.00;;;;;;5113811;28;20047;-73
2023/04/06 12:12:25;;;;;;;29.55;20.00;;;15.80;74.70;;;;;;5117544;27;20118;-72
2023/04/06 12:14:51;;;;;;;24.80;18.80;;;15.80;74.40;;;;;;5113164;28;20119;-74
2023/04/06 12:17:18;;;;;;;26.27;19.05;;;15.80;74.90;;;;;;5113256;28;20051;-73
2023/04/06 12:19:43;;;;;;;27.52;19.83;;;15.70;74.00;;;;;;5102598;27;20047;-73
2023/04/06 12:22:09;;;;;;;25.75;19.38;;;15.60;73.80;;;;;;5112444;27;20089;-73
2023/04/06 12:24:35;;;;;;;29.40;19.75;;;15.50;73.70;;;;;;5113620;27;20042;-72
2023/04/06 12:27:01;;;;;;;29.40;20.38;;;15.60;73.90;;;;;;5131926;27;20030;-74
2023/04/06 12:29:27;;;;;;;27.67;19.60;;;15.40;75.20;;;;;;5130080;27;20114;-73
2023/04/06 12:31:52;;;;;;;26.67;19.08;;;15.50;74.90;;;;;;5131531;27;20126;-75
2023/04/06 12:34:18;;;;;;;30.55;18.42;;;15.60;75.30;;;;;;5132107;27;20040;-72
2023/04/06 12:36:44;;;;;;;29.45;19.60;;;15.50;74.30;;;;;;5113361;28;20039;-73
2023/04/06 12:39:10;;;;;;;27.92;18.67;;;15.50;74.70;;;;;;5121281;28;20109;-74